createdAt,value
2022-12-17T00:01:10.566Z,-5.55
2022-12-17T00:04:01.259Z,-5.52
2022-12-17T00:06:51.587Z,-5.52
2022-12-17T00:09:43.593Z,-5.59
2022-12-17T00:12:39.431Z,-5.69
2022-12-17T00:15:29.949Z,-5.75
2022-12-17T00:18:26.632Z,-5.76
2022-12-17T00:21:18.550Z,-5.77
2022-12-17T00:24:09.143Z,-5.78
2022-12-17T00:27:02.175Z,-5.72
2022-12-17T00:29:54.601Z,-5.66
2022-12-17T00:32:45.203Z,-5.65
2022-12-17T00:35:55.112Z,-5.64
2022-12-17T00:38:48.564Z,-5.64
2022-12-17T00:41:38.315Z,-5.63
2022-12-17T00:44:31.120Z,-5.69
2022-12-17T00:47:21.197Z,-5.65
2022-12-17T00:50:11.708Z,-5.64
2022-12-17T00:53:01.767Z,-5.59
2022-12-17T00:55:51.678Z,-5.58
2022-12-17T00:58:41.602Z,-5.59
2022-12-17T01:01:36.916Z,-5.61
2022-12-17T01:04:27.772Z,-5.57
2022-12-17T01:07:17.697Z,-5.51
2022-12-17T01:10:07.542Z,-5.53
2022-12-17T01:12:57.516Z,-5.48
2022-12-17T01:15:47.748Z,-5.44
2022-12-17T01:18:40.931Z,-5.39
2022-12-17T01:21:30.952Z,-5.38
2022-12-17T01:24:21.069Z,-5.42
2022-12-17T01:27:10.975Z,-5.49
2022-12-17T01:30:01.026Z,-5.50
2022-12-17T01:32:51.215Z,-5.48
2022-12-17T01:35:44.420Z,-5.52
2022-12-17T01:38:38.250Z,-5.50
2022-12-17T01:41:28.445Z,-5.47
2022-12-17T01:44:18.616Z,-5.43
2022-12-17T01:47:10.923Z,-5.43
2022-12-17T01:50:00.947Z,-5.46
2022-12-17T01:52:50.717Z,-5.43
2022-12-17T01:55:58.444Z,-5.40
2022-12-17T01:58:49.199Z,-5.40
2022-12-17T02:01:39.920Z,-5.38
2022-12-17T02:04:31.133Z,-5.34
2022-12-17T02:07:40.478Z,-5.37
2022-12-17T02:10:41.522Z,-5.49
2022-12-17T02:13:37.186Z,-5.53
2022-12-17T02:16:32.686Z,-5.50
2022-12-17T02:19:36.761Z,-5.50
2022-12-17T02:22:33.755Z,-5.48
2022-12-17T02:25:30.490Z,-5.49
2022-12-17T02:28:23.713Z,-5.50
2022-12-17T02:31:14.042Z,-5.52
2022-12-17T02:34:04.853Z,-5.50
2022-12-17T02:36:56.523Z,-5.46
2022-12-17T02:39:46.395Z,-5.45
2022-12-17T02:42:39.403Z,-5.44
2022-12-17T02:45:30.748Z,-5.42
2022-12-17T02:48:22.816Z,-5.46
2022-12-17T02:51:13.732Z,-5.56
2022-12-17T02:54:09.381Z,-5.56
2022-12-17T02:56:59.756Z,-5.53
2022-12-17T02:59:49.925Z,-5.47
2022-12-17T03:02:40.228Z,-5.37
2022-12-17T03:05:46.403Z,-5.31
2022-12-17T03:08:36.794Z,-5.33
2022-12-17T03:11:26.602Z,-5.36
2022-12-17T03:14:16.205Z,-5.35
2022-12-17T03:17:06.553Z,-5.33
2022-12-17T03:19:56.640Z,-5.32
2022-12-17T03:22:46.527Z,-5.33
2022-12-17T03:25:36.748Z,-5.30
2022-12-17T03:28:30.981Z,-5.26
2022-12-17T03:31:21.264Z,-5.29
2022-12-17T03:34:11.022Z,-5.29
2022-12-17T03:37:01.004Z,-5.24
2022-12-17T03:39:50.810Z,-5.27
2022-12-17T03:42:40.483Z,-5.27
2022-12-17T03:45:33.010Z,-5.24
2022-12-17T03:48:28.986Z,-5.21
2022-12-17T03:51:19.203Z,-5.19
2022-12-17T03:54:09.332Z,-5.15
2022-12-17T03:57:02.178Z,-5.15
2022-12-17T03:59:52.192Z,-5.13
2022-12-17T04:02:42.231Z,-5.14
2022-12-17T04:05:32.806Z,-5.16
2022-12-17T04:08:25.143Z,-5.16
2022-12-17T04:11:15.330Z,-5.17
2022-12-17T04:14:05.342Z,-5.15
2022-12-17T04:16:55.055Z,-5.05
2022-12-17T04:19:44.928Z,-4.99
2022-12-17T04:22:34.992Z,-5.03
2022-12-17T04:26:01.468Z,-5.19
2022-12-17T04:28:51.769Z,-5.33
2022-12-17T04:31:43.899Z,-5.31
2022-12-17T04:34:36.095Z,-5.28
2022-12-17T04:37:25.874Z,-5.26
2022-12-17T04:40:15.688Z,-5.19
2022-12-17T04:43:13.842Z,-5.17
2022-12-17T04:46:09.618Z,-5.14
2022-12-17T04:49:04.738Z,-5.16
2022-12-17T04:51:54.583Z,-5.23
2022-12-17T04:54:44.471Z,-5.17
2022-12-17T04:57:34.686Z,-5.12
2022-12-17T05:00:40.649Z,-5.09
2022-12-17T05:03:33.462Z,-5.07
2022-12-17T05:06:24.186Z,-5.09
2022-12-17T05:09:13.824Z,-5.04
2022-12-17T05:12:03.636Z,-5.01
2022-12-17T05:14:53.492Z,-4.98
2022-12-17T05:17:43.209Z,-4.89
2022-12-17T05:20:37.784Z,-4.82
2022-12-17T05:23:27.738Z,-4.86
2022-12-17T05:26:24.092Z,-4.83
2022-12-17T05:29:16.834Z,-4.84
2022-12-17T05:32:07.593Z,-4.87
2022-12-17T05:34:59.714Z,-4.89
2022-12-17T05:37:50.584Z,-4.92
2022-12-17T05:40:40.928Z,-4.93
2022-12-17T05:43:32.590Z,-4.93
2022-12-17T05:46:22.755Z,-4.94
2022-12-17T05:49:12.775Z,-4.85
2022-12-17T05:52:02.690Z,-4.78
2022-12-17T05:54:52.789Z,-4.77
2022-12-17T05:57:43.218Z,-4.73
2022-12-17T06:00:38.526Z,-4.71
2022-12-17T06:03:29.311Z,-4.77
2022-12-17T06:06:19.212Z,-4.81
2022-12-17T06:09:09.306Z,-4.87
2022-12-17T06:12:02.589Z,-4.89
2022-12-17T06:14:53.508Z,-4.89
2022-12-17T06:17:47.048Z,-4.91
2022-12-17T06:20:37.545Z,-4.90
2022-12-17T06:23:29.921Z,-4.84
2022-12-17T06:26:19.669Z,-4.75
2022-12-17T06:29:10.023Z,-4.70
2022-12-17T06:31:59.856Z,-4.77
2022-12-17T06:35:04.297Z,-4.79
2022-12-17T06:37:54.170Z,-4.78
2022-12-17T06:40:40.316Z,-4.79
2022-12-17T06:43:30.190Z,-4.82
2022-12-17T06:46:22.391Z,-4.82
2022-12-17T06:49:14.754Z,-4.84
2022-12-17T06:52:04.643Z,-4.88
2022-12-17T06:54:54.461Z,-4.91
2022-12-17T06:57:50.034Z,-4.90
2022-12-17T07:00:40.302Z,-4.83
2022-12-17T07:03:31.855Z,-4.84
2022-12-17T07:06:21.956Z,-4.82
2022-12-17T07:09:11.740Z,-4.80
2022-12-17T07:12:01.439Z,-4.73
2022-12-17T07:14:52.127Z,-4.67
2022-12-17T07:17:42.079Z,-4.66
2022-12-17T07:20:32.791Z,-4.65
2022-12-17T07:23:22.696Z,-4.63
2022-12-17T07:26:12.481Z,-4.62
2022-12-17T07:29:02.471Z,-4.65
2022-12-17T07:31:54.938Z,-4.69
2022-12-17T07:34:45.048Z,-4.75
2022-12-17T07:37:34.742Z,-4.78
2022-12-17T07:40:25.765Z,-4.82
2022-12-17T07:43:15.822Z,-4.83
2022-12-17T07:46:05.787Z,-4.91
2022-12-17T07:48:56.003Z,-4.91
2022-12-17T07:51:48.325Z,-4.91
2022-12-17T07:54:52.777Z,-4.86
2022-12-17T07:57:42.819Z,-4.80
2022-12-17T08:00:37.450Z,-4.75
2022-12-17T08:03:27.391Z,-4.78
2022-12-17T08:06:19.201Z,-4.82
2022-12-17T08:09:08.987Z,-4.90
2022-12-17T08:11:59.061Z,-4.93
2022-12-17T08:14:49.392Z,-5.00
2022-12-17T08:17:39.229Z,-5.07
2022-12-17T08:20:30.705Z,-5.14
2022-12-17T08:23:24.077Z,-5.22
2022-12-17T08:26:13.655Z,-5.34
2022-12-17T08:29:03.304Z,-5.32
2022-12-17T08:31:53.050Z,-5.26
2022-12-17T08:34:42.973Z,-5.27
2022-12-17T08:37:33.015Z,-5.25
2022-12-17T08:40:27.457Z,-5.21
2022-12-17T08:43:33.156Z,-5.27
2022-12-17T08:46:23.602Z,-5.35
2022-12-17T08:49:13.800Z,-5.36
2022-12-17T08:52:04.219Z,-5.34
2022-12-17T08:54:53.940Z,-5.35
2022-12-17T08:57:43.968Z,-5.34
2022-12-17T09:00:35.346Z,-5.33
2022-12-17T09:03:25.383Z,-5.33
2022-12-17T09:06:11.399Z,-5.34
2022-12-17T09:09:01.475Z,-5.31
2022-12-17T09:11:51.437Z,-5.32
2022-12-17T09:14:41.402Z,-5.32
2022-12-17T09:17:31.024Z,-5.31
2022-12-17T09:20:26.202Z,-5.29
2022-12-17T09:23:30.256Z,-5.25
2022-12-17T09:26:20.256Z,-5.25
2022-12-17T09:29:10.037Z,-5.21
2022-12-17T09:32:00.105Z,-5.18
2022-12-17T09:34:52.807Z,-5.12
2022-12-17T09:37:42.761Z,-5.07
2022-12-17T09:40:39.432Z,-5.03
2022-12-17T09:43:42.845Z,-4.96
2022-12-17T09:46:41.308Z,-4.92
2022-12-17T09:49:37.526Z,-4.92
2022-12-17T09:52:38.659Z,-4.88
2022-12-17T09:55:39.908Z,-4.86
2022-12-17T09:58:39.632Z,-4.82
2022-12-17T10:01:38.465Z,-4.83
2022-12-17T10:04:34.940Z,-4.89
2022-12-17T10:07:32.251Z,-4.86
2022-12-17T10:10:32.919Z,-4.80
2022-12-17T10:13:26.663Z,-4.74
2022-12-17T10:20:25.301Z,-4.69
2022-12-17T10:23:29.019Z,-4.63
2022-12-17T10:26:26.842Z,-4.49
2022-12-17T10:29:48.672Z,-4.41
2022-12-17T10:39:45.682Z,-4.17
2022-12-17T10:42:43.542Z,-4.10
2022-12-17T10:45:48.582Z,-4.04
2022-12-17T10:48:43.331Z,-3.98
2022-12-17T10:51:56.517Z,-3.93
2022-12-17T10:54:49.880Z,-3.86
2022-12-17T10:57:49.440Z,-3.76
2022-12-17T11:00:50.004Z,-3.65
2022-12-17T11:04:07.416Z,-3.63
2022-12-17T11:07:00.629Z,-3.66
2022-12-17T11:10:03.729Z,-3.58
2022-12-17T11:13:01.483Z,-3.48
2022-12-17T11:15:56.961Z,-3.44
2022-12-17T11:18:51.656Z,-3.36
2022-12-17T11:22:09.371Z,-3.31
2022-12-17T11:25:49.217Z,-3.26
2022-12-17T11:29:09.031Z,-3.20
2022-12-17T11:32:31.382Z,-3.19
2022-12-17T11:36:14.885Z,-3.18
2022-12-17T11:44:58.759Z,-3.12
2022-12-17T11:47:59.738Z,-3.16
2022-12-17T11:50:58.022Z,-3.09
2022-12-17T11:54:02.870Z,-3.05
2022-12-17T11:56:56.341Z,-3.00
2022-12-17T11:59:55.081Z,-2.91
2022-12-17T12:03:00.113Z,-2.87
2022-12-17T12:06:00.927Z,-2.80
2022-12-17T12:08:54.439Z,-2.76
2022-12-17T12:11:54.383Z,-2.69
2022-12-17T12:15:04.175Z,-2.58
2022-12-17T12:18:02.388Z,-2.55
2022-12-17T12:21:11.223Z,-2.57
2022-12-17T12:24:13.233Z,-2.51
2022-12-17T12:27:11.337Z,-2.47
2022-12-17T12:30:08.958Z,-2.49
2022-12-17T12:33:12.549Z,-2.47
2022-12-17T12:36:03.131Z,-2.48
2022-12-17T12:38:58.229Z,-2.42
2022-12-17T12:42:02.296Z,-2.39
2022-12-17T12:44:58.310Z,-2.40
2022-12-17T12:47:56.300Z,-2.42
2022-12-17T12:50:58.646Z,-2.41
2022-12-17T12:53:49.137Z,-2.36
2022-12-17T12:56:52.229Z,-2.31
2022-12-17T12:59:47.656Z,-2.37
2022-12-17T13:02:50.818Z,-2.49
2022-12-17T13:05:35.536Z,-2.55
2022-12-17T13:08:23.652Z,-2.55
2022-12-17T13:11:00.034Z,-2.55
2022-12-17T13:13:38.567Z,-2.51
2022-12-17T13:16:33.237Z,-2.49
2022-12-17T13:19:19.677Z,-2.52
2022-12-17T13:21:51.812Z,-2.49
2022-12-17T13:24:30.396Z,-2.48
2022-12-17T13:27:02.670Z,-2.54
2022-12-17T13:29:38.959Z,-2.58
2022-12-17T13:32:21.317Z,-2.61
2022-12-17T13:35:10.328Z,-2.66
2022-12-17T13:37:58.997Z,-2.71
2022-12-17T13:40:43.788Z,-2.70
2022-12-17T13:43:25.936Z,-2.70
2022-12-17T13:46:00.856Z,-2.68
2022-12-17T13:48:33.091Z,-2.61
2022-12-17T13:51:06.891Z,-2.56
2022-12-17T13:53:41.338Z,-2.54
2022-12-17T13:56:13.638Z,-2.50
2022-12-17T13:58:49.209Z,-2.44
2022-12-17T14:01:23.802Z,-2.36
2022-12-17T14:04:08.166Z,-2.31
2022-12-17T14:06:41.739Z,-2.26
2022-12-17T14:09:20.845Z,-2.27
2022-12-17T14:12:13.016Z,-2.28
2022-12-17T14:14:48.408Z,-2.29
2022-12-17T14:17:23.652Z,-2.30
2022-12-17T14:20:15.322Z,-2.34
2022-12-17T14:23:33.226Z,-2.41
2022-12-17T14:26:51.193Z,-2.46
2022-12-17T14:29:52.938Z,-2.51
2022-12-17T14:33:28.122Z,-2.48
2022-12-17T14:47:22.613Z,-2.16
2022-12-17T14:50:02.394Z,-2.15
2022-12-17T14:52:40.668Z,-2.08
2022-12-17T14:55:31.931Z,-2.00
2022-12-17T14:58:21.060Z,-1.95
2022-12-17T15:00:57.071Z,-1.91
2022-12-17T15:03:32.268Z,-1.88
2022-12-17T15:06:07.558Z,-1.85
2022-12-17T15:08:45.258Z,-1.82
2022-12-17T15:11:20.167Z,-1.81
2022-12-17T15:13:56.362Z,-1.80
2022-12-17T15:16:28.919Z,-1.78
2022-12-17T15:19:01.579Z,-1.81
2022-12-17T15:21:36.613Z,-1.81
2022-12-17T15:24:13.082Z,-1.80
2022-12-17T15:26:45.209Z,-1.81
2022-12-17T15:29:17.559Z,-1.82
2022-12-17T15:31:49.780Z,-1.85
2022-12-17T15:34:21.984Z,-1.88
2022-12-17T15:36:56.703Z,-1.90
2022-12-17T15:39:28.925Z,-1.92
2022-12-17T15:42:18.916Z,-1.96
2022-12-17T15:44:51.140Z,-2.09
2022-12-17T15:47:23.488Z,-2.16
2022-12-17T15:49:55.704Z,-2.20
2022-12-17T15:52:28.629Z,-2.23
2022-12-17T15:55:00.751Z,-2.26
2022-12-17T15:57:32.985Z,-2.31
2022-12-17T16:00:05.769Z,-2.36
2022-12-17T16:02:38.326Z,-2.40
2022-12-17T16:05:12.611Z,-2.41
2022-12-17T16:07:44.774Z,-2.46
2022-12-17T16:10:17.209Z,-2.50
2022-12-17T16:12:49.341Z,-2.54
2022-12-17T16:15:21.513Z,-2.56
2022-12-17T16:17:53.712Z,-2.60
2022-12-17T16:20:26.999Z,-2.66
2022-12-17T16:22:59.239Z,-2.70
2022-12-17T16:25:33.703Z,-2.73
2022-12-17T16:28:06.239Z,-2.78
2022-12-17T16:30:40.761Z,-2.84
2022-12-17T16:33:15.402Z,-2.88
2022-12-17T16:35:55.010Z,-2.93
2022-12-17T16:38:27.807Z,-2.99
2022-12-17T16:41:02.218Z,-3.03
2022-12-17T16:43:40.316Z,-3.06
2022-12-17T16:46:28.339Z,-3.12
2022-12-17T16:49:05.170Z,-3.21
2022-12-17T16:51:37.661Z,-3.25
2022-12-17T16:54:17.028Z,-3.28
2022-12-17T16:56:50.168Z,-3.34
2022-12-17T16:59:23.503Z,-3.39
2022-12-17T17:01:57.275Z,-3.41
2022-12-17T17:04:30.018Z,-3.42
2022-12-17T17:07:02.365Z,-3.46
2022-12-17T17:09:38.356Z,-3.50
2022-12-17T17:12:12.031Z,-3.49
2022-12-17T17:14:44.399Z,-3.48
2022-12-17T17:17:19.855Z,-3.49
2022-12-17T17:20:14.850Z,-3.53
2022-12-17T17:22:47.136Z,-3.56
2022-12-17T17:25:50.236Z,-3.57
2022-12-17T17:28:26.176Z,-3.61
2022-12-17T17:34:17.029Z,-3.69
2022-12-17T17:37:07.778Z,-3.66
2022-12-17T17:39:54.803Z,-3.68
2022-12-17T17:42:27.251Z,-3.68
2022-12-17T17:45:19.740Z,-3.70
2022-12-17T17:48:15.076Z,-3.80
2022-12-17T17:50:57.554Z,-3.87
2022-12-17T17:53:30.387Z,-3.87
2022-12-17T17:56:14.804Z,-3.87
2022-12-17T17:58:49.670Z,-3.89
2022-12-17T18:01:24.712Z,-3.89
2022-12-17T18:04:02.031Z,-3.88
2022-12-17T18:06:37.257Z,-3.86
2022-12-17T18:09:10.964Z,-3.82
2022-12-17T18:11:46.266Z,-3.85
2022-12-17T18:14:18.389Z,-3.83
2022-12-17T18:16:51.845Z,-3.83
2022-12-17T18:19:25.010Z,-3.88
2022-12-17T18:21:59.744Z,-3.90
2022-12-17T18:24:31.957Z,-3.94
2022-12-17T18:27:04.144Z,-3.97
2022-12-17T18:29:36.548Z,-3.98
2022-12-17T18:32:09.425Z,-3.95
2022-12-17T18:34:41.602Z,-3.92
2022-12-17T18:37:16.068Z,-3.90
2022-12-17T18:39:49.664Z,-3.93
2022-12-17T18:42:42.506Z,-3.97
2022-12-17T18:45:16.239Z,-4.02
2022-12-17T18:47:49.077Z,-4.02
2022-12-17T18:50:21.648Z,-4.03
2022-12-17T18:52:54.047Z,-4.03
2022-12-17T18:55:27.870Z,-4.00
2022-12-17T18:58:01.755Z,-3.97
2022-12-17T19:00:34.038Z,-3.96
2022-12-17T19:03:06.859Z,-3.95
2022-12-17T19:05:47.253Z,-3.95
2022-12-17T19:08:21.916Z,-3.93
2022-12-17T19:10:54.150Z,-3.93
2022-12-17T19:13:26.348Z,-3.97
2022-12-17T19:16:07.642Z,-3.99
2022-12-17T19:18:41.042Z,-4.02
2022-12-17T19:21:16.097Z,-4.05
2022-12-17T19:23:48.695Z,-4.08
2022-12-17T19:26:23.131Z,-4.05
2022-12-17T19:28:57.300Z,-4.04
2022-12-17T19:31:34.001Z,-4.03
2022-12-17T19:34:08.649Z,-4.02
2022-12-17T19:36:42.246Z,-4.01
2022-12-17T19:39:17.522Z,-4.03
2022-12-17T19:41:52.601Z,-4.02
2022-12-17T19:44:25.732Z,-4.00
2022-12-17T19:46:58.319Z,-3.98
2022-12-17T19:49:30.546Z,-3.97
2022-12-17T19:52:02.708Z,-3.97
2022-12-17T19:54:35.672Z,-3.93
2022-12-17T19:57:10.214Z,-3.89
2022-12-17T19:59:42.582Z,-3.87
2022-12-17T20:02:17.435Z,-3.86
2022-12-17T20:04:51.165Z,-3.82
2022-12-17T20:07:23.374Z,-3.80
2022-12-17T20:09:55.613Z,-3.75
2022-12-17T20:12:30.163Z,-3.73
2022-12-17T20:15:02.452Z,-3.73
2022-12-17T20:17:34.703Z,-3.71
2022-12-17T20:20:13.690Z,-3.66
2022-12-17T20:22:46.015Z,-3.65
2022-12-17T20:25:18.324Z,-3.61
2022-12-17T20:27:52.339Z,-3.59
2022-12-17T20:30:25.068Z,-3.53
2022-12-17T20:32:57.332Z,-3.49
2022-12-17T20:35:29.653Z,-3.43
2022-12-17T20:38:01.789Z,-3.39
2022-12-17T20:40:34.546Z,-3.36
2022-12-17T20:43:06.676Z,-3.29
2022-12-17T20:45:39.675Z,-3.24
2022-12-17T20:48:12.018Z,-3.20
2022-12-17T20:50:45.584Z,-3.13
2022-12-17T20:53:19.720Z,-3.10
2022-12-17T20:56:02.594Z,-3.06
2022-12-17T20:58:34.932Z,-3.04
2022-12-17T21:01:09.799Z,-2.97
2022-12-17T21:03:42.852Z,-2.92
2022-12-17T21:06:18.031Z,-2.87
2022-12-17T21:08:54.836Z,-2.87
2022-12-17T21:11:29.035Z,-2.89
2022-12-17T21:14:05.001Z,-2.89
2022-12-17T21:16:41.016Z,-2.89
2022-12-17T21:19:16.975Z,-2.89
2022-12-17T21:21:49.462Z,-2.89
2022-12-17T21:24:22.047Z,-2.85
2022-12-17T21:26:54.678Z,-2.77
2022-12-17T21:29:29.803Z,-2.75
2022-12-17T21:32:03.155Z,-2.75
2022-12-17T21:34:35.736Z,-2.73
2022-12-17T21:37:11.324Z,-2.71
2022-12-17T21:39:43.922Z,-2.71
2022-12-17T21:42:34.219Z,-2.70
2022-12-17T21:45:07.759Z,-2.68
2022-12-17T21:47:40.161Z,-2.67
2022-12-17T21:50:15.064Z,-2.66
2022-12-17T21:52:48.036Z,-2.66
2022-12-17T21:55:20.351Z,-2.65
2022-12-17T21:57:56.571Z,-2.64
2022-12-17T22:00:29.049Z,-2.61
2022-12-17T22:03:01.770Z,-2.62
2022-12-17T22:05:36.918Z,-2.61
2022-12-17T22:08:11.795Z,-2.60
2022-12-17T22:10:46.746Z,-2.59
2022-12-17T22:13:39.410Z,-2.58
2022-12-17T22:16:12.618Z,-2.56
2022-12-17T22:18:44.929Z,-2.54
2022-12-17T22:21:17.805Z,-2.51
2022-12-17T22:23:51.300Z,-2.50
2022-12-17T22:26:24.268Z,-2.51
2022-12-17T22:28:56.453Z,-2.50
2022-12-17T22:32:01.423Z,-2.49
2022-12-17T22:35:25.009Z,-2.56
2022-12-17T22:40:51.062Z,-2.61
2022-12-17T22:44:29.104Z,-2.63
2022-12-17T22:44:43.580Z,-2.63
2022-12-17T22:46:25.140Z,-2.66
2022-12-17T22:48:58.106Z,-2.67
2022-12-17T22:51:34.619Z,-2.68
2022-12-17T22:54:14.444Z,-2.67
2022-12-17T22:57:04.903Z,-2.66
2022-12-17T22:59:39.476Z,-2.67
2022-12-17T23:02:12.415Z,-2.67
2022-12-17T23:04:45.145Z,-2.65
2022-12-17T23:07:18.096Z,-2.63
2022-12-17T23:09:50.411Z,-2.67
2022-12-17T23:12:42.577Z,-2.71
2022-12-17T23:15:18.033Z,-2.71
2022-12-17T23:17:50.682Z,-2.72
2022-12-17T23:20:23.474Z,-2.73
2022-12-17T23:22:56.217Z,-2.73
2022-12-17T23:25:29.465Z,-2.73
2022-12-17T23:28:01.816Z,-2.74
2022-12-17T23:30:34.692Z,-2.77
2022-12-17T23:33:26.222Z,-2.79
2022-12-17T23:36:34.977Z,-2.81
2022-12-17T23:39:34.729Z,-2.88
2022-12-17T23:42:07.109Z,-2.87
2022-12-17T23:44:39.247Z,-2.84
2022-12-17T23:47:11.426Z,-2.85
2022-12-17T23:49:43.550Z,-2.86
2022-12-17T23:52:15.805Z,-2.81
2022-12-17T23:54:50.975Z,-2.80
2022-12-17T23:57:23.481Z,-2.87
2022-12-17T23:59:55.621Z,-2.95
